sensor_id;sensor_type;location;lat;lon;timestamp;temperature;humidity
26326;DHT22;14032;52.510;7.342;2023-03-24T00:47:10;11.10;99.90
26326;DHT22;14032;52.510;7.342;2023-03-24T00:49:36;11.10;99.90
26326;DHT22;14032;52.510;7.342;2023-03-24T00:54:38;11.10;99.90
26326;DHT22;14032;52.510;7.342;2023-03-24T00:57:05;11.10;99.90
26326;DHT22;14032;52.510;7.342;2023-03-24T00:59:30;11.10;99.90
26326;DHT22;14032;52.510;7.342;2023-03-24T01:01:56;11.10;99.90
26326;DHT22;14032;52.510;7.342;2023-03-24T01:04:22;11.20;99.90
26326;DHT22;14032;52.510;7.342;2023-03-24T01:06:51;11.20;99.90
26326;DHT22;14032;52.510;7.342;2023-03-24T01:09:18;11.30;99.90
26326;DHT22;14032;52.510;7.342;2023-03-24T01:11:46;11.30;99.90
26326;DHT22;14032;52.510;7.342;2023-03-24T01:14:11;11.30;99.90
26326;DHT22;14032;52.510;7.342;2023-03-24T01:19:11;11.30;99.90
26326;DHT22;14032;52.510;7.342;2023-03-24T01:21:37;11.40;99.90
26326;DHT22;14032;52.510;7.342;2023-03-24T01:24:03;11.40;99.90
26326;DHT22;14032;52.510;7.342;2023-03-24T01:26:29;11.40;99.90
26326;DHT22;14032;52.510;7.342;2023-03-24T01:28:55;11.40;99.90
26326;DHT22;14032;52.510;7.342;2023-03-24T01:31:20;11.40;99.90
26326;DHT22;14032;52.510;7.342;2023-03-24T01:33:46;11.40;99.90
26326;DHT22;14032;52.510;7.342;2023-03-24T01:36:11;11.40;99.90
26326;DHT22;14032;52.510;7.342;2023-03-24T01:38:37;11.40;99.90
26326;DHT22;14032;52.510;7.342;2023-03-24T01:41:03;11.40;99.90
26326;DHT22;14032;52.510;7.342;2023-03-24T01:43:29;11.40;99.90
26326;DHT22;14032;52.510;7.342;2023-03-24T01:46:00;11.40;99.90
26326;DHT22;14032;52.510;7.342;2023-03-24T01:48:35;11.40;99.90
26326;DHT22;14032;52.510;7.342;2023-03-24T01:51:16;11.50;99.90
26326;DHT22;14032;52.510;7.342;2023-03-24T01:54:25;11.50;99.90
26326;DHT22;14032;52.510;7.342;2023-03-24T01:56:33;11.50;99.90
26326;DHT22;14032;52.510;7.342;2023-03-24T01:59:01;11.50;99.90
26326;DHT22;14032;52.510;7.342;2023-03-24T02:01:28;11.50;99.90
26326;DHT22;14032;52.510;7.342;2023-03-24T02:03:56;11.50;99.90
26326;DHT22;14032;52.510;7.342;2023-03-24T02:06:22;11.50;99.90
26326;DHT22;14032;52.510;7.342;2023-03-24T02:08:51;11.50;99.90
26326;DHT22;14032;52.510;7.342;2023-03-24T02:11:21;11.50;99.90
26326;DHT22;14032;52.510;7.342;2023-03-24T02:32:03;11.70;99.90
26326;DHT22;14032;52.510;7.342;2023-03-24T02:47:47;11.80;99.90
26326;DHT22;14032;52.510;7.342;2023-03-24T02:55:30;11.70;99.90
26326;DHT22;14032;52.510;7.342;2023-03-24T02:58:00;11.80;99.90
26326;DHT22;14032;52.510;7.342;2023-03-24T03:03:30;11.80;99.90
26326;DHT22;14032;52.510;7.342;2023-03-24T03:06:42;11.80;99.90
26326;DHT22;14032;52.510;7.342;2023-03-24T03:08:47;11.80;99.90
26326;DHT22;14032;52.510;7.342;2023-03-24T03:11:15;11.80;99.90
26326;DHT22;14032;52.510;7.342;2023-03-24T03:13:48;11.80;99.90
26326;DHT22;14032;52.510;7.342;2023-03-24T03:16:16;11.80;99.90
26326;DHT22;14032;52.510;7.342;2023-03-24T03:18:44;11.80;99.90
26326;DHT22;14032;52.510;7.342;2023-03-24T03:21:14;11.80;99.90
26326;DHT22;14032;52.510;7.342;2023-03-24T03:23:43;11.80;99.90
26326;DHT22;14032;52.510;7.342;2023-03-24T03:26:12;11.80;99.90
26326;DHT22;14032;52.510;7.342;2023-03-24T03:57:07;11.80;99.90
26326;DHT22;14032;52.510;7.342;2023-03-24T04:07:21;11.80;99.90
26326;DHT22;14032;52.510;7.342;2023-03-24T05:30:03;10.80;99.90
26326;DHT22;14032;52.510;7.342;2023-03-24T05:32:28;10.70;99.90
26326;DHT22;14032;52.510;7.342;2023-03-24T05:34:54;10.70;99.90
26326;DHT22;14032;52.510;7.342;2023-03-24T05:37:19;10.60;99.90
26326;DHT22;14032;52.510;7.342;2023-03-24T05:39:45;10.60;99.90
26326;DHT22;14032;52.510;7.342;2023-03-24T05:42:10;10.60;99.90
26326;DHT22;14032;52.510;7.342;2023-03-24T05:44:36;10.60;99.90
26326;DHT22;14032;52.510;7.342;2023-03-24T05:47:02;10.60;99.90
26326;DHT22;14032;52.510;7.342;2023-03-24T05:49:27;10.60;99.90
26326;DHT22;14032;52.510;7.342;2023-03-24T05:51:53;10.50;99.90
26326;DHT22;14032;52.510;7.342;2023-03-24T05:54:20;10.50;99.90
26326;DHT22;14032;52.510;7.342;2023-03-24T05:56:46;10.40;99.90
26326;DHT22;14032;52.510;7.342;2023-03-24T05:59:11;10.40;99.90
26326;DHT22;14032;52.510;7.342;2023-03-24T06:01:40;10.30;99.90
26326;DHT22;14032;52.510;7.342;2023-03-24T06:04:08;10.30;99.90
26326;DHT22;14032;52.510;7.342;2023-03-24T06:06:35;10.30;99.90
26326;DHT22;14032;52.510;7.342;2023-03-24T06:09:03;10.30;99.90
26326;DHT22;14032;52.510;7.342;2023-03-24T06:11:29;10.30;99.90
26326;DHT22;14032;52.510;7.342;2023-03-24T06:13:54;10.30;99.90
26326;DHT22;14032;52.510;7.342;2023-03-24T06:16:26;10.30;99.90
26326;DHT22;14032;52.510;7.342;2023-03-24T06:18:52;10.30;99.90
26326;DHT22;14032;52.510;7.342;2023-03-24T06:21:18;10.30;99.90
26326;DHT22;14032;52.510;7.342;2023-03-24T06:23:43;10.40;99.90
26326;DHT22;14032;52.510;7.342;2023-03-24T06:26:11;10.40;99.90
26326;DHT22;14032;52.510;7.342;2023-03-24T06:28:37;10.40;99.90
26326;DHT22;14032;52.510;7.342;2023-03-24T06:31:07;10.40;99.90
26326;DHT22;14032;52.510;7.342;2023-03-24T06:33:39;10.40;99.90
26326;DHT22;14032;52.510;7.342;2023-03-24T06:36:05;10.40;99.90
26326;DHT22;14032;52.510;7.342;2023-03-24T06:38:30;10.40;99.90
26326;DHT22;14032;52.510;7.342;2023-03-24T06:40:59;10.40;99.90
26326;DHT22;14032;52.510;7.342;2023-03-24T06:43:28;10.30;99.90
26326;DHT22;14032;52.510;7.342;2023-03-24T06:46:06;10.30;99.90
26326;DHT22;14032;52.510;7.342;2023-03-24T06:48:35;10.30;99.90
26326;DHT22;14032;52.510;7.342;2023-03-24T06:51:01;10.30;99.90
26326;DHT22;14032;52.510;7.342;2023-03-24T06:53:26;10.30;99.90
26326;DHT22;14032;52.510;7.342;2023-03-24T06:55:52;10.30;99.90
26326;DHT22;14032;52.510;7.342;2023-03-24T06:58:17;10.30;99.90
26326;DHT22;14032;52.510;7.342;2023-03-24T07:00:43;10.40;99.90
26326;DHT22;14032;52.510;7.342;2023-03-24T07:03:16;10.40;99.90
26326;DHT22;14032;52.510;7.342;2023-03-24T07:05:42;10.40;99.90
26326;DHT22;14032;52.510;7.342;2023-03-24T07:08:09;10.40;99.90
26326;DHT22;14032;52.510;7.342;2023-03-24T07:10:36;10.50;99.90
26326;DHT22;14032;52.510;7.342;2023-03-24T07:13:04;10.50;99.90
26326;DHT22;14032;52.510;7.342;2023-03-24T07:15:32;10.50;99.90
26326;DHT22;14032;52.510;7.342;2023-03-24T07:17:58;10.50;99.90
26326;DHT22;14032;52.510;7.342;2023-03-24T07:20:24;10.50;99.90
26326;DHT22;14032;52.510;7.342;2023-03-24T07:22:49;10.50;99.90
26326;DHT22;14032;52.510;7.342;2023-03-24T07:25:15;10.50;99.90
26326;DHT22;14032;52.510;7.342;2023-03-24T07:27:44;10.50;99.90
26326;DHT22;14032;52.510;7.342;2023-03-24T07:30:10;10.60;99.90
26326;DHT22;14032;52.510;7.342;2023-03-24T07:32:36;10.50;99.90
26326;DHT22;14032;52.510;7.342;2023-03-24T07:35:10;10.50;99.90
26326;DHT22;14032;52.510;7.342;2023-03-24T07:37:36;10.60;99.90
26326;DHT22;14032;52.510;7.342;2023-03-24T07:40:05;10.60;99.90
26326;DHT22;14032;52.510;7.342;2023-03-24T07:42:33;10.60;99.90
26326;DHT22;14032;52.510;7.342;2023-03-24T07:44:59;10.60;99.90
26326;DHT22;14032;52.510;7.342;2023-03-24T07:47:24;10.70;99.90
26326;DHT22;14032;52.510;7.342;2023-03-24T07:49:49;10.70;99.90
26326;DHT22;14032;52.510;7.342;2023-03-24T07:52:15;10.70;99.90
26326;DHT22;14032;52.510;7.342;2023-03-24T07:57:16;10.70;99.90
26326;DHT22;14032;52.510;7.342;2023-03-24T07:59:41;10.70;99.90
26326;DHT22;14032;52.510;7.342;2023-03-24T08:02:17;10.70;99.90
26326;DHT22;14032;52.510;7.342;2023-03-24T08:04:43;10.80;99.90
26326;DHT22;14032;52.510;7.342;2023-03-24T08:14:54;10.90;99.90
26326;DHT22;14032;52.510;7.342;2023-03-24T08:17:19;10.90;99.90
26326;DHT22;14032;52.510;7.342;2023-03-24T08:19:45;10.90;99.90
26326;DHT22;14032;52.510;7.342;2023-03-24T08:22:12;10.90;99.90
26326;DHT22;14032;52.510;7.342;2023-03-24T08:24:37;10.90;99.90
26326;DHT22;14032;52.510;7.342;2023-03-24T08:27:03;10.90;99.90
26326;DHT22;14032;52.510;7.342;2023-03-24T08:29:31;10.90;99.90
26326;DHT22;14032;52.510;7.342;2023-03-24T08:31:59;11.00;99.90
26326;DHT22;14032;52.510;7.342;2023-03-24T08:34:24;11.00;99.90
26326;DHT22;14032;52.510;7.342;2023-03-24T08:36:50;11.00;99.90
26326;DHT22;14032;52.510;7.342;2023-03-24T08:41:51;11.10;99.90
26326;DHT22;14032;52.510;7.342;2023-03-24T08:44:18;11.20;99.90
26326;DHT22;14032;52.510;7.342;2023-03-24T08:46:44;11.30;99.90
26326;DHT22;14032;52.510;7.342;2023-03-24T08:49:09;11.30;99.90
26326;DHT22;14032;52.510;7.342;2023-03-24T08:51:35;11.40;99.90
26326;DHT22;14032;52.510;7.342;2023-03-24T08:54:01;11.50;99.90
26326;DHT22;14032;52.510;7.342;2023-03-24T08:56:29;11.60;99.90
26326;DHT22;14032;52.510;7.342;2023-03-24T08:58:55;11.60;99.90
26326;DHT22;14032;52.510;7.342;2023-03-24T09:01:22;11.70;99.90
26326;DHT22;14032;52.510;7.342;2023-03-24T09:03:47;11.70;99.90
26326;DHT22;14032;52.510;7.342;2023-03-24T09:06:13;11.80;99.90
26326;DHT22;14032;52.510;7.342;2023-03-24T09:08:39;11.80;99.90
26326;DHT22;14032;52.510;7.342;2023-03-24T09:11:05;11.80;99.90
26326;DHT22;14032;52.510;7.342;2023-03-24T09:13:31;11.70;99.90
26326;DHT22;14032;52.510;7.342;2023-03-24T09:15:57;11.70;99.90
26326;DHT22;14032;52.510;7.342;2023-03-24T09:23:32;12.10;99.90
26326;DHT22;14032;52.510;7.342;2023-03-24T09:25:59;12.10;99.90
26326;DHT22;14032;52.510;7.342;2023-03-24T09:28:24;12.10;99.90
26326;DHT22;14032;52.510;7.342;2023-03-24T09:30:50;12.10;99.90
26326;DHT22;14032;52.510;7.342;2023-03-24T09:33:20;12.20;99.90
26326;DHT22;14032;52.510;7.342;2023-03-24T09:35:51;12.20;99.90
26326;DHT22;14032;52.510;7.342;2023-03-24T09:38:17;12.20;99.90
26326;DHT22;14032;52.510;7.342;2023-03-24T09:40:52;12.20;99.90
26326;DHT22;14032;52.510;7.342;2023-03-24T09:45:56;12.20;99.90
26326;DHT22;14032;52.510;7.342;2023-03-24T09:51:08;12.50;99.90
26326;DHT22;14032;52.510;7.342;2023-03-24T09:53:41;12.70;99.90
26326;DHT22;14032;52.510;7.342;2023-03-24T09:56:15;12.70;99.90
26326;DHT22;14032;52.510;7.342;2023-03-24T09:58:41;12.60;99.90
26326;DHT22;14032;52.510;7.342;2023-03-24T10:01:14;12.50;99.90
26326;DHT22;14032;52.510;7.342;2023-03-24T10:03:41;12.50;99.90
26326;DHT22;14032;52.510;7.342;2023-03-24T10:06:08;12.50;99.90
26326;DHT22;14032;52.510;7.342;2023-03-24T10:08:35;12.40;99.90
26326;DHT22;14032;52.510;7.342;2023-03-24T10:16:17;12.20;99.90
26326;DHT22;14032;52.510;7.342;2023-03-24T10:18:52;12.10;99.90
26326;DHT22;14032;52.510;7.342;2023-03-24T10:21:20;12.00;99.90
26326;DHT22;14032;52.510;7.342;2023-03-24T10:26:32;12.30;99.90
26326;DHT22;14032;52.510;7.342;2023-03-24T10:31:30;12.80;99.90
26326;DHT22;14032;52.510;7.342;2023-03-24T10:33:56;12.90;99.90
26326;DHT22;14032;52.510;7.342;2023-03-24T10:36:22;12.90;99.90
26326;DHT22;14032;52.510;7.342;2023-03-24T10:38:49;13.10;99.90
26326;DHT22;14032;52.510;7.342;2023-03-24T10:41:15;13.20;99.90
26326;DHT22;14032;52.510;7.342;2023-03-24T10:43:42;13.30;99.90
26326;DHT22;14032;52.510;7.342;2023-03-24T10:46:13;13.40;99.90
26326;DHT22;14032;52.510;7.342;2023-03-24T10:51:06;13.50;99.90
26326;DHT22;14032;52.510;7.342;2023-03-24T10:53:32;13.50;99.90
26326;DHT22;14032;52.510;7.342;2023-03-24T10:55:58;13.40;99.90
26326;DHT22;14032;52.510;7.342;2023-03-24T11:00:52;13.20;99.90
26326;DHT22;14032;52.510;7.342;2023-03-24T11:03:27;13.20;99.90
26326;DHT22;14032;52.510;7.342;2023-03-24T11:06:00;13.20;99.90
26326;DHT22;14032;52.510;7.342;2023-03-24T11:10:58;13.30;99.90
26326;DHT22;14032;52.510;7.342;2023-03-24T11:13:28;13.40;99.90
26326;DHT22;14032;52.510;7.342;2023-03-24T11:16:11;13.50;99.90
26326;DHT22;14032;52.510;7.342;2023-03-24T11:18:53;13.60;99.90
26326;DHT22;14032;52.510;7.342;2023-03-24T11:21:18;13.70;99.90
26326;DHT22;14032;52.510;7.342;2023-03-24T11:23:45;13.90;99.90
26326;DHT22;14032;52.510;7.342;2023-03-24T11:26:17;13.90;99.90
26326;DHT22;14032;52.510;7.342;2023-03-24T11:31:30;14.00;99.90
26326;DHT22;14032;52.510;7.342;2023-03-24T11:33:57;14.10;99.90
26326;DHT22;14032;52.510;7.342;2023-03-24T11:39:01;14.20;99.90
26326;DHT22;14032;52.510;7.342;2023-03-24T11:41:27;14.20;99.90
26326;DHT22;14032;52.510;7.342;2023-03-24T11:44:14;14.20;99.90
26326;DHT22;14032;52.510;7.342;2023-03-24T11:46:40;14.10;99.90
26326;DHT22;14032;52.510;7.342;2023-03-24T11:49:06;14.10;99.90
26326;DHT22;14032;52.510;7.342;2023-03-24T11:51:34;14.10;99.90
26326;DHT22;14032;52.510;7.342;2023-03-24T11:54:01;14.10;99.90
26326;DHT22;14032;52.510;7.342;2023-03-24T11:56:32;14.30;99.90
26326;DHT22;14032;52.510;7.342;2023-03-24T12:01:36;14.40;99.90
26326;DHT22;14032;52.510;7.342;2023-03-24T12:04:05;14.50;99.90
26326;DHT22;14032;52.510;7.342;2023-03-24T12:06:55;14.50;99.90
26326;DHT22;14032;52.510;7.342;2023-03-24T12:12:02;14.40;99.90
26326;DHT22;14032;52.510;7.342;2023-03-24T12:14:36;14.30;99.90
26326;DHT22;14032;52.510;7.342;2023-03-24T12:17:13;14.10;99.90
26326;DHT22;14032;52.510;7.342;2023-03-24T12:22:13;14.00;99.90
26326;DHT22;14032;52.510;7.342;2023-03-24T12:27:06;13.90;99.90
26326;DHT22;14032;52.510;7.342;2023-03-24T12:32:28;13.90;99.90
26326;DHT22;14032;52.510;7.342;2023-03-24T12:35:01;14.00;99.90
26326;DHT22;14032;52.510;7.342;2023-03-24T12:40:03;14.20;99.90
26326;DHT22;14032;52.510;7.342;2023-03-24T12:42:50;14.20;99.90
26326;DHT22;14032;52.510;7.342;2023-03-24T12:50:35;14.20;99.90
26326;DHT22;14032;52.510;7.342;2023-03-24T12:53:09;14.20;99.90
26326;DHT22;14032;52.510;7.342;2023-03-24T13:01:18;14.10;99.90
26326;DHT22;14032;52.510;7.342;2023-03-24T13:03:49;14.10;99.90
26326;DHT22;14032;52.510;7.342;2023-03-24T13:12:16;13.70;99.90
26326;DHT22;14032;52.510;7.342;2023-03-24T13:17:12;13.20;99.90
26326;DHT22;14032;52.510;7.342;2023-03-24T13:19:40;12.70;99.90
26326;DHT22;14032;52.510;7.342;2023-03-24T13:22:08;12.20;99.90
26326;DHT22;14032;52.510;7.342;2023-03-24T13:24:36;11.70;99.90
26326;DHT22;14032;52.510;7.342;2023-03-24T13:34:53;10.90;99.90
26326;DHT22;14032;52.510;7.342;2023-03-24T13:37:36;10.80;99.90
26326;DHT22;14032;52.510;7.342;2023-03-24T13:40:14;10.70;99.90
26326;DHT22;14032;52.510;7.342;2023-03-24T13:42:44;10.80;99.90
26326;DHT22;14032;52.510;7.342;2023-03-24T13:48:40;11.00;99.90
26326;DHT22;14032;52.510;7.342;2023-03-24T13:50:45;11.10;99.90
26326;DHT22;14032;52.510;7.342;2023-03-24T13:53:13;11.10;99.90
26326;DHT22;14032;52.510;7.342;2023-03-24T13:55:39;11.20;99.90
26326;DHT22;14032;52.510;7.342;2023-03-24T13:58:17;11.40;99.90
26326;DHT22;14032;52.510;7.342;2023-03-24T14:03:34;11.50;99.90
26326;DHT22;14032;52.510;7.342;2023-03-24T14:06:04;11.50;99.90
26326;DHT22;14032;52.510;7.342;2023-03-24T14:08:39;11.50;99.90
26326;DHT22;14032;52.510;7.342;2023-03-24T14:11:09;11.60;99.90
26326;DHT22;14032;52.510;7.342;2023-03-24T14:13:50;11.70;99.90
26326;DHT22;14032;52.510;7.342;2023-03-24T14:19:07;11.70;99.90
26326;DHT22;14032;52.510;7.342;2023-03-24T14:21:33;11.70;99.90
26326;DHT22;14032;52.510;7.342;2023-03-24T14:23:58;11.70;99.90
26326;DHT22;14032;52.510;7.342;2023-03-24T14:26:32;11.70;99.90
26326;DHT22;14032;52.510;7.342;2023-03-24T14:28:58;11.70;99.90
26326;DHT22;14032;52.510;7.342;2023-03-24T14:31:31;11.70;99.90
26326;DHT22;14032;52.510;7.342;2023-03-24T14:36:39;11.70;99.90
26326;DHT22;14032;52.510;7.342;2023-03-24T14:41:47;11.80;99.90
26326;DHT22;14032;52.510;7.342;2023-03-24T14:44:50;11.80;99.90
26326;DHT22;14032;52.510;7.342;2023-03-24T14:47:01;11.80;99.90
26326;DHT22;14032;52.510;7.342;2023-03-24T14:49:28;11.80;99.90
26326;DHT22;14032;52.510;7.342;2023-03-24T14:54:28;11.80;99.90
26326;DHT22;14032;52.510;7.342;2023-03-24T14:56:56;11.70;99.90
26326;DHT22;14032;52.510;7.342;2023-03-24T14:59:34;11.70;99.90
26326;DHT22;14032;52.510;7.342;2023-03-24T15:02:10;11.70;99.90
26326;DHT22;14032;52.510;7.342;2023-03-24T15:04:37;11.70;99.90
26326;DHT22;14032;52.510;7.342;2023-03-24T15:07:03;11.70;99.90
26326;DHT22;14032;52.510;7.342;2023-03-24T15:09:36;11.70;99.90
26326;DHT22;14032;52.510;7.342;2023-03-24T15:12:02;11.70;99.90
26326;DHT22;14032;52.510;7.342;2023-03-24T15:14:28;11.80;99.90
26326;DHT22;14032;52.510;7.342;2023-03-24T15:16:59;11.80;99.90
26326;DHT22;14032;52.510;7.342;2023-03-24T15:19:28;11.80;99.90
26326;DHT22;14032;52.510;7.342;2023-03-24T15:22:10;11.90;99.90
26326;DHT22;14032;52.510;7.342;2023-03-24T15:24:37;11.90;99.90
26326;DHT22;14032;52.510;7.342;2023-03-24T15:29:31;11.90;99.90
26326;DHT22;14032;52.510;7.342;2023-03-24T15:31:56;11.90;99.90
26326;DHT22;14032;52.510;7.342;2023-03-24T15:36:51;11.70;99.90
26326;DHT22;14032;52.510;7.342;2023-03-24T15:39:18;11.60;99.90
26326;DHT22;14032;52.510;7.342;2023-03-24T15:41:44;11.60;99.90
26326;DHT22;14032;52.510;7.342;2023-03-24T15:44:12;11.60;99.90
26326;DHT22;14032;52.510;7.342;2023-03-24T15:46:41;11.50;99.90
26326;DHT22;14032;52.510;7.342;2023-03-24T15:49:13;11.50;99.90
26326;DHT22;14032;52.510;7.342;2023-03-24T15:51:47;11.50;99.90
26326;DHT22;14032;52.510;7.342;2023-03-24T16:04:35;11.70;99.90
26326;DHT22;14032;52.510;7.342;2023-03-24T16:07:02;11.80;99.90
26326;DHT22;14032;52.510;7.342;2023-03-24T16:09:34;11.70;99.90
26326;DHT22;14032;52.510;7.342;2023-03-24T16:24:56;11.70;99.90
26326;DHT22;14032;52.510;7.342;2023-03-24T16:27:23;11.70;99.90
26326;DHT22;14032;52.510;7.342;2023-03-24T16:29:48;11.80;99.90
26326;DHT22;14032;52.510;7.342;2023-03-24T16:47:42;11.60;99.90
26326;DHT22;14032;52.510;7.342;2023-03-24T16:52:49;11.40;99.90
26326;DHT22;14032;52.510;7.342;2023-03-24T16:55:14;11.40;99.90
26326;DHT22;14032;52.510;7.342;2023-03-24T17:00:15;11.40;99.90
26326;DHT22;14032;52.510;7.342;2023-03-24T17:02:41;11.40;99.90
26326;DHT22;14032;52.510;7.342;2023-03-24T17:05:15;11.30;99.90
26326;DHT22;14032;52.510;7.342;2023-03-24T17:07:42;11.30;99.90
26326;DHT22;14032;52.510;7.342;2023-03-24T17:10:08;11.30;99.90
26326;DHT22;14032;52.510;7.342;2023-03-24T17:12:33;11.20;99.90
26326;DHT22;14032;52.510;7.342;2023-03-24T17:14:59;11.20;99.90
26326;DHT22;14032;52.510;7.342;2023-03-24T17:17:25;11.20;99.90
26326;DHT22;14032;52.510;7.342;2023-03-24T17:19:50;11.20;99.90
26326;DHT22;14032;52.510;7.342;2023-03-24T17:22:16;11.10;99.90
26326;DHT22;14032;52.510;7.342;2023-03-24T17:27:18;11.10;99.90
26326;DHT22;14032;52.510;7.342;2023-03-24T17:29:45;11.00;99.90
26326;DHT22;14032;52.510;7.342;2023-03-24T17:32:11;11.00;99.90
26326;DHT22;14032;52.510;7.342;2023-03-24T17:34:36;11.00;99.90
26326;DHT22;14032;52.510;7.342;2023-03-24T17:37:05;10.90;99.90
26326;DHT22;14032;52.510;7.342;2023-03-24T17:39:31;10.90;99.90
26326;DHT22;14032;52.510;7.342;2023-03-24T17:41:56;10.90;99.90
26326;DHT22;14032;52.510;7.342;2023-03-24T17:44:25;10.90;99.90
26326;DHT22;14032;52.510;7.342;2023-03-24T17:46:51;10.90;99.90
26326;DHT22;14032;52.510;7.342;2023-03-24T17:49:16;10.80;99.90
26326;DHT22;14032;52.510;7.342;2023-03-24T17:51:42;10.80;99.90
26326;DHT22;14032;52.510;7.342;2023-03-24T17:54:07;10.70;99.90
26326;DHT22;14032;52.510;7.342;2023-03-24T17:56:34;10.70;99.90
26326;DHT22;14032;52.510;7.342;2023-03-24T17:59:00;10.70;99.90
26326;DHT22;14032;52.510;7.342;2023-03-24T18:01:27;10.70;99.90
26326;DHT22;14032;52.510;7.342;2023-03-24T18:03:54;10.60;99.90
26326;DHT22;14032;52.510;7.342;2023-03-24T18:06:20;10.60;99.90
26326;DHT22;14032;52.510;7.342;2023-03-24T18:08:45;10.60;99.90
26326;DHT22;14032;52.510;7.342;2023-03-24T18:11:11;10.60;99.90
26326;DHT22;14032;52.510;7.342;2023-03-24T18:13:38;10.50;99.90
26326;DHT22;14032;52.510;7.342;2023-03-24T18:16:04;10.50;99.90
26326;DHT22;14032;52.510;7.342;2023-03-24T18:18:32;10.40;99.90
26326;DHT22;14032;52.510;7.342;2023-03-24T18:20:57;10.40;99.90
26326;DHT22;14032;52.510;7.342;2023-03-24T18:23:23;10.30;99.90
26326;DHT22;14032;52.510;7.342;2023-03-24T18:25:55;10.30;99.90
26326;DHT22;14032;52.510;7.342;2023-03-24T18:28:20;10.40;99.90
26326;DHT22;14032;52.510;7.342;2023-03-24T18:30:46;10.30;99.90
26326;DHT22;14032;52.510;7.342;2023-03-24T18:33:11;10.30;99.90
26326;DHT22;14032;52.510;7.342;2023-03-24T18:35:40;10.20;99.90
26326;DHT22;14032;52.510;7.342;2023-03-24T18:38:08;10.30;99.90
26326;DHT22;14032;52.510;7.342;2023-03-24T18:40:33;10.30;99.90
26326;DHT22;14032;52.510;7.342;2023-03-24T18:42:58;10.20;99.90
26326;DHT22;14032;52.510;7.342;2023-03-24T18:45:24;10.20;99.90
26326;DHT22;14032;52.510;7.342;2023-03-24T18:47:50;10.20;99.90
26326;DHT22;14032;52.510;7.342;2023-03-24T18:50:15;10.20;99.90
26326;DHT22;14032;52.510;7.342;2023-03-24T18:52:41;10.20;99.90
26326;DHT22;14032;52.510;7.342;2023-03-24T18:55:08;10.20;99.90
26326;DHT22;14032;52.510;7.342;2023-03-24T18:57:33;10.20;99.90
26326;DHT22;14032;52.510;7.342;2023-03-24T18:59:59;10.20;99.90
26326;DHT22;14032;52.510;7.342;2023-03-24T19:02:25;10.20;99.90
26326;DHT22;14032;52.510;7.342;2023-03-24T19:10:00;10.30;99.90
26326;DHT22;14032;52.510;7.342;2023-03-24T19:12:26;10.20;99.90
26326;DHT22;14032;52.510;7.342;2023-03-24T19:14:51;10.20;99.90
26326;DHT22;14032;52.510;7.342;2023-03-24T19:19:51;9.90;99.90
26326;DHT22;14032;52.510;7.342;2023-03-24T19:22:25;9.80;99.90
26326;DHT22;14032;52.510;7.342;2023-03-24T19:24:51;9.70;99.90
26326;DHT22;14032;52.510;7.342;2023-03-24T19:32:26;9.40;99.90
26326;DHT22;14032;52.510;7.342;2023-03-24T19:34:51;9.30;99.90
26326;DHT22;14032;52.510;7.342;2023-03-24T19:37:20;9.30;99.90
26326;DHT22;14032;52.510;7.342;2023-03-24T19:39:48;9.30;99.90
26326;DHT22;14032;52.510;7.342;2023-03-24T19:42:14;9.30;99.90
26326;DHT22;14032;52.510;7.342;2023-03-24T19:44:39;9.20;99.90
26326;DHT22;14032;52.510;7.342;2023-03-24T19:47:05;9.20;99.90
26326;DHT22;14032;52.510;7.342;2023-03-24T19:49:30;9.30;99.90
26326;DHT22;14032;52.510;7.342;2023-03-24T19:51:56;9.20;99.90
26326;DHT22;14032;52.510;7.342;2023-03-24T19:54:22;9.20;99.90
26326;DHT22;14032;52.510;7.342;2023-03-24T19:56:48;9.20;99.90
26326;DHT22;14032;52.510;7.342;2023-03-24T19:59:13;9.20;99.90
26326;DHT22;14032;52.510;7.342;2023-03-24T20:01:38;9.20;99.90
26326;DHT22;14032;52.510;7.342;2023-03-24T20:04:04;9.20;99.90
26326;DHT22;14032;52.510;7.342;2023-03-24T20:06:30;9.20;99.90
26326;DHT22;14032;52.510;7.342;2023-03-24T20:08:55;9.30;99.90
26326;DHT22;14032;52.510;7.342;2023-03-24T20:11:21;9.20;99.90
26326;DHT22;14032;52.510;7.342;2023-03-24T20:31:53;9.20;99.90
26326;DHT22;14032;52.510;7.342;2023-03-24T20:34:18;9.20;99.90
26326;DHT22;14032;52.510;7.342;2023-03-24T20:36:44;9.30;99.90
26326;DHT22;14032;52.510;7.342;2023-03-24T20:39:09;9.30;99.90
26326;DHT22;14032;52.510;7.342;2023-03-24T20:41:35;9.30;99.90
26326;DHT22;14032;52.510;7.342;2023-03-24T20:44:00;9.30;99.90
26326;DHT22;14032;52.510;7.342;2023-03-24T20:46:26;9.40;99.90
26326;DHT22;14032;52.510;7.342;2023-03-24T20:48:51;9.40;99.90
26326;DHT22;14032;52.510;7.342;2023-03-24T20:51:17;9.40;99.90
26326;DHT22;14032;52.510;7.342;2023-03-24T20:53:42;9.50;99.90
26326;DHT22;14032;52.510;7.342;2023-03-24T21:03:52;9.50;99.90
26326;DHT22;14032;52.510;7.342;2023-03-24T21:06:18;9.50;99.90
26326;DHT22;14032;52.510;7.342;2023-03-24T21:08:44;9.60;99.90
26326;DHT22;14032;52.510;7.342;2023-03-24T21:11:10;9.60;99.90
26326;DHT22;14032;52.510;7.342;2023-03-24T21:13:35;9.60;99.90
26326;DHT22;14032;52.510;7.342;2023-03-24T21:16:04;9.60;99.90
26326;DHT22;14032;52.510;7.342;2023-03-24T21:18:30;9.60;99.90
26326;DHT22;14032;52.510;7.342;2023-03-24T21:20:57;9.60;99.90
26326;DHT22;14032;52.510;7.342;2023-03-24T21:23:22;9.60;99.90
26326;DHT22;14032;52.510;7.342;2023-03-24T21:25:48;9.60;99.90
26326;DHT22;14032;52.510;7.342;2023-03-24T21:28:14;9.60;99.90
26326;DHT22;14032;52.510;7.342;2023-03-24T21:30:44;9.60;99.90
26326;DHT22;14032;52.510;7.342;2023-03-24T21:33:10;9.60;99.90
26326;DHT22;14032;52.510;7.342;2023-03-24T21:35:36;9.60;99.90
26326;DHT22;14032;52.510;7.342;2023-03-24T21:38:01;9.60;99.90
26326;DHT22;14032;52.510;7.342;2023-03-24T21:40:29;9.60;99.90
26326;DHT22;14032;52.510;7.342;2023-03-24T21:48:04;9.60;99.90
26326;DHT22;14032;52.510;7.342;2023-03-24T21:50:49;9.50;99.90
26326;DHT22;14032;52.510;7.342;2023-03-24T21:53:15;9.50;99.90
26326;DHT22;14032;52.510;7.342;2023-03-24T21:55:44;9.50;99.90
26326;DHT22;14032;52.510;7.342;2023-03-24T21:58:20;9.50;99.90
26326;DHT22;14032;52.510;7.342;2023-03-24T22:08:30;9.50;99.90
26326;DHT22;14032;52.510;7.342;2023-03-24T22:10:56;9.50;99.90
26326;DHT22;14032;52.510;7.342;2023-03-24T22:13:23;9.50;99.90
26326;DHT22;14032;52.510;7.342;2023-03-24T22:15:55;9.50;99.90
26326;DHT22;14032;52.510;7.342;2023-03-24T22:28:40;9.40;99.90
26326;DHT22;14032;52.510;7.342;2023-03-24T22:31:07;9.50;99.90
26326;DHT22;14032;52.510;7.342;2023-03-24T22:33:33;9.50;99.90
26326;DHT22;14032;52.510;7.342;2023-03-24T22:51:29;9.40;99.90
26326;DHT22;14032;52.510;7.342;2023-03-24T22:53:55;9.40;99.90
26326;DHT22;14032;52.510;7.342;2023-03-24T22:56:21;9.50;99.90
26326;DHT22;14032;52.510;7.342;2023-03-24T22:58:47;9.50;99.90